Warm Springs, Nevada
Current Conditions -  °F | °C
As of 10:56 PM on Saturday 25 Oct 2014 (Local Time) from KTPH Reporting Station
Clear Clear  
Wind Chill: 47°   Ceiling: Unl
Heat Index: 49°   Visibility: 10mi
Dew Point: 28°   Wind: 6mph
Humidity: 44%   Direction: 60°ENE
Pressure: 30.06"   Gusts: NA
Location:  38.4847°N, 116.233°W
Report Text: KTPH 260556Z AUTO 06005KT 10SM CLR 09/M02 A3006 RMK AO2 SLP132 T00941022 10206 20083 52014
Loading
Personal Weather Stations






























Interactive Weather Map
Tropical Storm Tracking
New forecast layout! Learn more

10-Day Weather Forecast

Advertisements
Track Severe Weather on mobile